sensor_id;sensor_type;location;lat;lon;timestamp;pressure;altitude;pressure_sealevel;temperature;humidity
59493;BME280;45497;43.996;22.876;2023-03-08T00:01:23;100293.34;;;9.74;47.13
59493;BME280;45497;43.996;22.876;2023-03-08T00:03:56;100293.19;;;9.68;47.55
59493;BME280;45497;43.996;22.876;2023-03-08T00:06:23;100289.78;;;9.59;47.59
59493;BME280;45497;43.996;22.876;2023-03-08T00:08:49;100298.53;;;9.60;47.89
59493;BME280;45497;43.996;22.876;2023-03-08T00:11:15;100300.19;;;9.61;47.65
59493;BME280;45497;43.996;22.876;2023-03-08T00:13:40;100294.25;;;9.59;48.05
59493;BME280;45497;43.996;22.876;2023-03-08T00:16:09;100293.28;;;9.51;48.15
59493;BME280;45497;43.996;22.876;2023-03-08T00:18:35;100296.41;;;9.55;48.20
59493;BME280;45497;43.996;22.876;2023-03-08T00:23:29;100294.97;;;9.75;47.93
59493;BME280;45497;43.996;22.876;2023-03-08T00:25:54;100287.28;;;9.89;47.35
59493;BME280;45497;43.996;22.876;2023-03-08T00:28:20;100284.88;;;10.02;46.99
59493;BME280;45497;43.996;22.876;2023-03-08T00:31:00;100285.13;;;10.16;46.68
59493;BME280;45497;43.996;22.876;2023-03-08T00:33:27;100287.38;;;10.19;46.09
59493;BME280;45497;43.996;22.876;2023-03-08T00:36:08;100288.31;;;10.26;45.96
59493;BME280;45497;43.996;22.876;2023-03-08T00:38:35;100282.50;;;10.30;46.13
59493;BME280;45497;43.996;22.876;2023-03-08T00:41:01;100289.75;;;10.37;46.11
59493;BME280;45497;43.996;22.876;2023-03-08T00:43:27;100285.66;;;10.34;46.49
59493;BME280;45497;43.996;22.876;2023-03-08T00:45:53;100280.53;;;10.24;46.51
59493;BME280;45497;43.996;22.876;2023-03-08T00:48:19;100289.50;;;10.23;46.99
59493;BME280;45497;43.996;22.876;2023-03-08T00:50:44;100294.16;;;10.21;47.56
59493;BME280;45497;43.996;22.876;2023-03-08T00:53:10;100286.44;;;10.11;47.68
59493;BME280;45497;43.996;22.876;2023-03-08T00:55:36;100293.56;;;10.11;48.54
59493;BME280;45497;43.996;22.876;2023-03-08T00:58:02;100292.22;;;10.15;48.27
59493;BME280;45497;43.996;22.876;2023-03-08T01:00:28;100285.19;;;10.22;48.47
59493;BME280;45497;43.996;22.876;2023-03-08T01:02:55;100293.44;;;10.27;48.42
59493;BME280;45497;43.996;22.876;2023-03-08T01:05:20;100295.22;;;10.35;48.40
59493;BME280;45497;43.996;22.876;2023-03-08T01:07:46;100280.81;;;10.38;48.01
59493;BME280;45497;43.996;22.876;2023-03-08T01:10:11;100281.91;;;10.43;48.42
59493;BME280;45497;43.996;22.876;2023-03-08T01:12:37;100278.06;;;10.46;48.27
59493;BME280;45497;43.996;22.876;2023-03-08T01:15:04;100274.16;;;10.42;48.47
59493;BME280;45497;43.996;22.876;2023-03-08T01:17:30;100279.28;;;10.58;48.26
59493;BME280;45497;43.996;22.876;2023-03-08T01:19:56;100271.97;;;10.60;47.64
59493;BME280;45497;43.996;22.876;2023-03-08T01:22:21;100265.78;;;10.68;47.53
59493;BME280;45497;43.996;22.876;2023-03-08T01:24:48;100272.47;;;10.79;47.09
59493;BME280;45497;43.996;22.876;2023-03-08T01:27:14;100282.16;;;10.86;47.02
59493;BME280;45497;43.996;22.876;2023-03-08T01:29:41;100268.16;;;10.93;47.38
59493;BME280;45497;43.996;22.876;2023-03-08T01:32:07;100274.75;;;10.97;47.15
59493;BME280;45497;43.996;22.876;2023-03-08T01:34:35;100269.91;;;11.00;47.13
59493;BME280;45497;43.996;22.876;2023-03-08T01:37:01;100267.25;;;11.15;47.06
59493;BME280;45497;43.996;22.876;2023-03-08T01:39:26;100269.53;;;11.18;46.74
59493;BME280;45497;43.996;22.876;2023-03-08T01:41:52;100264.69;;;11.07;46.69
59493;BME280;45497;43.996;22.876;2023-03-08T01:44:18;100264.13;;;11.12;46.40
59493;BME280;45497;43.996;22.876;2023-03-08T01:46:45;100265.59;;;11.14;46.41
59493;BME280;45497;43.996;22.876;2023-03-08T01:49:23;100261.47;;;11.12;46.21
59493;BME280;45497;43.996;22.876;2023-03-08T01:52:02;100272.09;;;11.12;46.63
59493;BME280;45497;43.996;22.876;2023-03-08T01:54:34;100254.91;;;11.07;46.51
59493;BME280;45497;43.996;22.876;2023-03-08T01:57:16;100259.38;;;11.22;46.48
59493;BME280;45497;43.996;22.876;2023-03-08T01:59:43;100263.66;;;11.23;46.32
59493;BME280;45497;43.996;22.876;2023-03-08T02:02:09;100255.78;;;11.29;46.46
59493;BME280;45497;43.996;22.876;2023-03-08T02:04:35;100252.22;;;11.22;46.44
59493;BME280;45497;43.996;22.876;2023-03-08T02:07:00;100252.69;;;11.26;46.26
59493;BME280;45497;43.996;22.876;2023-03-08T02:09:26;100254.06;;;11.22;45.92
59493;BME280;45497;43.996;22.876;2023-03-08T02:11:53;100257.81;;;11.27;45.59
59493;BME280;45497;43.996;22.876;2023-03-08T02:14:21;100264.81;;;11.35;45.64
59493;BME280;45497;43.996;22.876;2023-03-08T02:16:47;100267.22;;;11.30;45.56
59493;BME280;45497;43.996;22.876;2023-03-08T02:19:27;100264.38;;;11.32;45.47
59493;BME280;45497;43.996;22.876;2023-03-08T02:21:55;100254.41;;;11.34;45.75
59493;BME280;45497;43.996;22.876;2023-03-08T02:24:23;100270.78;;;11.37;45.56
59493;BME280;45497;43.996;22.876;2023-03-08T02:26:50;100270.13;;;11.35;44.99
59493;BME280;45497;43.996;22.876;2023-03-08T02:29:17;100264.28;;;11.40;44.92
59493;BME280;45497;43.996;22.876;2023-03-08T02:31:42;100268.19;;;11.44;44.44
59493;BME280;45497;43.996;22.876;2023-03-08T02:34:08;100269.66;;;11.46;44.39
59493;BME280;45497;43.996;22.876;2023-03-08T02:36:33;100273.38;;;11.52;44.13
59493;BME280;45497;43.996;22.876;2023-03-08T02:38:59;100271.50;;;11.46;44.06
59493;BME280;45497;43.996;22.876;2023-03-08T02:41:24;100281.47;;;11.44;44.21
59493;BME280;45497;43.996;22.876;2023-03-08T02:43:49;100266.72;;;11.41;44.08
59493;BME280;45497;43.996;22.876;2023-03-08T02:46:15;100268.75;;;11.39;43.89
59493;BME280;45497;43.996;22.876;2023-03-08T02:48:40;100273.88;;;11.41;44.17
59493;BME280;45497;43.996;22.876;2023-03-08T02:51:06;100269.31;;;11.35;44.18
59493;BME280;45497;43.996;22.876;2023-03-08T02:53:31;100270.50;;;11.32;43.92
59493;BME280;45497;43.996;22.876;2023-03-08T02:55:57;100277.81;;;11.30;44.27
59493;BME280;45497;43.996;22.876;2023-03-08T02:58:22;100281.59;;;11.21;44.46
59493;BME280;45497;43.996;22.876;2023-03-08T03:00:48;100272.63;;;11.07;44.41
59493;BME280;45497;43.996;22.876;2023-03-08T03:03:13;100277.31;;;10.90;45.29
59493;BME280;45497;43.996;22.876;2023-03-08T03:05:42;100278.31;;;10.89;45.08
59493;BME280;45497;43.996;22.876;2023-03-08T03:08:09;100275.13;;;10.94;45.06
59493;BME280;45497;43.996;22.876;2023-03-08T03:10:36;100285.81;;;11.00;44.61
59493;BME280;45497;43.996;22.876;2023-03-08T03:13:02;100295.69;;;11.06;44.91
59493;BME280;45497;43.996;22.876;2023-03-08T03:15:28;100299.44;;;10.97;44.84
59493;BME280;45497;43.996;22.876;2023-03-08T03:17:53;100287.00;;;10.83;44.87
59493;BME280;45497;43.996;22.876;2023-03-08T03:20:19;100300.78;;;10.78;45.11
59493;BME280;45497;43.996;22.876;2023-03-08T03:22:44;100306.47;;;10.75;45.27
59493;BME280;45497;43.996;22.876;2023-03-08T03:25:11;100302.16;;;10.74;45.16
59493;BME280;45497;43.996;22.876;2023-03-08T03:27:37;100304.06;;;10.80;44.72
59493;BME280;45497;43.996;22.876;2023-03-08T03:30:03;100319.63;;;10.83;44.96
59493;BME280;45497;43.996;22.876;2023-03-08T03:32:29;100314.97;;;10.85;45.07
59493;BME280;45497;43.996;22.876;2023-03-08T03:34:54;100318.81;;;10.83;44.57
59493;BME280;45497;43.996;22.876;2023-03-08T03:37:20;100308.09;;;10.76;44.89
59493;BME280;45497;43.996;22.876;2023-03-08T03:39:45;100323.09;;;10.69;45.13
59493;BME280;45497;43.996;22.876;2023-03-08T03:42:11;100326.75;;;10.68;45.45
59493;BME280;45497;43.996;22.876;2023-03-08T03:44:37;100316.50;;;10.65;45.37
59493;BME280;45497;43.996;22.876;2023-03-08T03:47:02;100318.88;;;10.60;45.32
59493;BME280;45497;43.996;22.876;2023-03-08T03:49:28;100330.75;;;10.64;45.33
59493;BME280;45497;43.996;22.876;2023-03-08T03:51:53;100332.59;;;10.63;45.23
59493;BME280;45497;43.996;22.876;2023-03-08T03:54:19;100329.56;;;10.51;45.42
59493;BME280;45497;43.996;22.876;2023-03-08T03:56:44;100331.91;;;10.46;45.39
59493;BME280;45497;43.996;22.876;2023-03-08T03:59:10;100328.84;;;10.35;45.76
59493;BME280;45497;43.996;22.876;2023-03-08T04:01:35;100326.25;;;10.26;46.36
59493;BME280;45497;43.996;22.876;2023-03-08T04:04:00;100331.13;;;10.14;46.47
59493;BME280;45497;43.996;22.876;2023-03-08T04:06:31;100345.81;;;10.17;46.57
59493;BME280;45497;43.996;22.876;2023-03-08T04:09:09;100342.06;;;10.11;46.92
59493;BME280;45497;43.996;22.876;2023-03-08T04:11:37;100348.69;;;10.16;46.93
59493;BME280;45497;43.996;22.876;2023-03-08T04:14:04;100353.50;;;10.12;46.89
59493;BME280;45497;43.996;22.876;2023-03-08T04:16:32;100337.97;;;10.09;46.74
59493;BME280;45497;43.996;22.876;2023-03-08T04:18:59;100345.13;;;10.00;47.30
59493;BME280;45497;43.996;22.876;2023-03-08T04:21:25;100341.56;;;9.85;47.30
59493;BME280;45497;43.996;22.876;2023-03-08T04:23:51;100353.97;;;9.84;47.29
59493;BME280;45497;43.996;22.876;2023-03-08T04:26:17;100348.22;;;9.81;47.46
59493;BME280;45497;43.996;22.876;2023-03-08T04:28:43;100351.31;;;9.92;46.92
59493;BME280;45497;43.996;22.876;2023-03-08T04:31:19;100345.69;;;9.87;47.27
59493;BME280;45497;43.996;22.876;2023-03-08T04:33:45;100356.13;;;9.89;47.03
59493;BME280;45497;43.996;22.876;2023-03-08T04:36:11;100346.19;;;9.91;47.29
59493;BME280;45497;43.996;22.876;2023-03-08T04:38:41;100349.72;;;9.83;46.92
59493;BME280;45497;43.996;22.876;2023-03-08T04:41:06;100353.34;;;9.82;47.13
59493;BME280;45497;43.996;22.876;2023-03-08T04:43:39;100347.06;;;9.83;47.24
59493;BME280;45497;43.996;22.876;2023-03-08T04:46:05;100345.06;;;9.85;47.03
59493;BME280;45497;43.996;22.876;2023-03-08T04:48:32;100332.47;;;9.87;47.14
59493;BME280;45497;43.996;22.876;2023-03-08T04:51:00;100337.41;;;9.90;46.85
59493;BME280;45497;43.996;22.876;2023-03-08T04:53:26;100345.78;;;10.02;46.87
59493;BME280;45497;43.996;22.876;2023-03-08T04:55:53;100344.72;;;10.11;46.63
59493;BME280;45497;43.996;22.876;2023-03-08T04:58:19;100344.84;;;10.18;46.53
59493;BME280;45497;43.996;22.876;2023-03-08T05:00:45;100344.03;;;10.18;46.52
59493;BME280;45497;43.996;22.876;2023-03-08T05:03:10;100345.19;;;10.15;46.45
59493;BME280;45497;43.996;22.876;2023-03-08T05:05:43;100361.38;;;10.20;46.37
59493;BME280;45497;43.996;22.876;2023-03-08T05:08:09;100349.78;;;10.21;46.53
59493;BME280;45497;43.996;22.876;2023-03-08T05:10:34;100348.44;;;10.25;45.90
59493;BME280;45497;43.996;22.876;2023-03-08T05:13:00;100363.63;;;10.31;46.36
59493;BME280;45497;43.996;22.876;2023-03-08T05:15:25;100372.44;;;10.32;46.08
59493;BME280;45497;43.996;22.876;2023-03-08T05:17:51;100364.16;;;10.27;46.50
59493;BME280;45497;43.996;22.876;2023-03-08T05:20:16;100361.84;;;10.24;46.59
59493;BME280;45497;43.996;22.876;2023-03-08T05:22:43;100372.28;;;10.25;46.66
59493;BME280;45497;43.996;22.876;2023-03-08T05:25:09;100369.63;;;10.25;46.86
59493;BME280;45497;43.996;22.876;2023-03-08T05:27:35;100374.91;;;10.33;46.65
59493;BME280;45497;43.996;22.876;2023-03-08T05:30:04;100364.19;;;10.50;46.75
59493;BME280;45497;43.996;22.876;2023-03-08T05:32:31;100372.63;;;10.68;46.24
59493;BME280;45497;43.996;22.876;2023-03-08T05:34:56;100366.59;;;10.75;46.09
59493;BME280;45497;43.996;22.876;2023-03-08T05:37:21;100369.91;;;10.77;46.17
59493;BME280;45497;43.996;22.876;2023-03-08T05:39:50;100373.75;;;10.74;46.18
59493;BME280;45497;43.996;22.876;2023-03-08T05:42:16;100379.31;;;10.64;46.17
59493;BME280;45497;43.996;22.876;2023-03-08T05:44:41;100381.72;;;10.51;46.85
59493;BME280;45497;43.996;22.876;2023-03-08T05:47:07;100382.75;;;10.50;46.81
59493;BME280;45497;43.996;22.876;2023-03-08T05:49:32;100383.66;;;10.57;46.46
59493;BME280;45497;43.996;22.876;2023-03-08T05:51:58;100393.28;;;10.73;46.28
59493;BME280;45497;43.996;22.876;2023-03-08T05:54:23;100392.72;;;10.86;46.16
59493;BME280;45497;43.996;22.876;2023-03-08T05:56:49;100400.13;;;11.05;45.81
59493;BME280;45497;43.996;22.876;2023-03-08T05:59:14;100405.00;;;11.17;45.91
59493;BME280;45497;43.996;22.876;2023-03-08T06:01:40;100405.31;;;11.22;45.72
59493;BME280;45497;43.996;22.876;2023-03-08T06:04:05;100404.56;;;11.28;45.69
59493;BME280;45497;43.996;22.876;2023-03-08T06:06:30;100396.41;;;11.29;45.84
59493;BME280;45497;43.996;22.876;2023-03-08T06:08:56;100400.63;;;11.39;45.82
59493;BME280;45497;43.996;22.876;2023-03-08T06:11:22;100396.78;;;11.41;45.51
59493;BME280;45497;43.996;22.876;2023-03-08T06:13:48;100409.16;;;11.49;45.69
59493;BME280;45497;43.996;22.876;2023-03-08T06:16:14;100411.22;;;11.54;45.57
59493;BME280;45497;43.996;22.876;2023-03-08T06:18:40;100412.72;;;11.56;45.68
59493;BME280;45497;43.996;22.876;2023-03-08T06:21:13;100410.50;;;11.60;45.87
59493;BME280;45497;43.996;22.876;2023-03-08T06:23:39;100408.13;;;11.65;45.86
59493;BME280;45497;43.996;22.876;2023-03-08T06:26:06;100408.13;;;11.65;45.97
59493;BME280;45497;43.996;22.876;2023-03-08T06:28:32;100413.44;;;11.65;46.31
59493;BME280;45497;43.996;22.876;2023-03-08T06:30:58;100413.91;;;11.69;46.48
59493;BME280;45497;43.996;22.876;2023-03-08T06:33:26;100397.22;;;11.75;46.27
59493;BME280;45497;43.996;22.876;2023-03-08T06:36:07;100405.28;;;11.81;46.40
59493;BME280;45497;43.996;22.876;2023-03-08T06:38:34;100410.41;;;11.83;46.69
59493;BME280;45497;43.996;22.876;2023-03-08T06:41:01;100418.44;;;11.90;46.93
59493;BME280;45497;43.996;22.876;2023-03-08T06:43:27;100418.28;;;11.91;46.70
59493;BME280;45497;43.996;22.876;2023-03-08T06:45:52;100423.88;;;11.96;46.43
59493;BME280;45497;43.996;22.876;2023-03-08T06:48:18;100403.59;;;11.95;46.20
59493;BME280;45497;43.996;22.876;2023-03-08T06:50:44;100415.50;;;12.14;46.02
59493;BME280;45497;43.996;22.876;2023-03-08T06:53:10;100412.16;;;12.27;45.93
59493;BME280;45497;43.996;22.876;2023-03-08T06:55:37;100413.22;;;12.33;45.78
59493;BME280;45497;43.996;22.876;2023-03-08T06:58:03;100415.31;;;12.37;45.58
59493;BME280;45497;43.996;22.876;2023-03-08T07:00:29;100425.19;;;12.43;45.52
59493;BME280;45497;43.996;22.876;2023-03-08T07:02:54;100429.69;;;12.43;45.12
59493;BME280;45497;43.996;22.876;2023-03-08T07:05:21;100434.56;;;12.39;45.11
59493;BME280;45497;43.996;22.876;2023-03-08T07:07:47;100441.72;;;12.39;45.26
59493;BME280;45497;43.996;22.876;2023-03-08T07:10:13;100445.66;;;12.43;45.13
59493;BME280;45497;43.996;22.876;2023-03-08T07:12:40;100439.75;;;12.48;45.04
59493;BME280;45497;43.996;22.876;2023-03-08T07:15:12;100444.84;;;12.64;44.89
59493;BME280;45497;43.996;22.876;2023-03-08T07:17:44;100442.22;;;12.71;44.70
59493;BME280;45497;43.996;22.876;2023-03-08T07:20:11;100448.88;;;12.81;44.68
59493;BME280;45497;43.996;22.876;2023-03-08T07:22:38;100449.50;;;12.84;44.97
59493;BME280;45497;43.996;22.876;2023-03-08T07:25:13;100448.88;;;12.81;44.98
59493;BME280;45497;43.996;22.876;2023-03-08T07:27:38;100453.19;;;12.82;44.69
59493;BME280;45497;43.996;22.876;2023-03-08T07:30:05;100451.34;;;12.83;44.87
59493;BME280;45497;43.996;22.876;2023-03-08T07:32:33;100452.50;;;12.74;45.44
59493;BME280;45497;43.996;22.876;2023-03-08T07:34:59;100458.75;;;12.66;45.57
59493;BME280;45497;43.996;22.876;2023-03-08T07:37:25;100461.63;;;12.65;45.74
59493;BME280;45497;43.996;22.876;2023-03-08T07:39:50;100459.22;;;12.70;45.68
59493;BME280;45497;43.996;22.876;2023-03-08T07:42:16;100463.75;;;12.76;45.46
59493;BME280;45497;43.996;22.876;2023-03-08T07:44:41;100464.72;;;12.68;45.77
59493;BME280;45497;43.996;22.876;2023-03-08T07:47:07;100472.25;;;12.65;45.80
59493;BME280;45497;43.996;22.876;2023-03-08T07:49:33;100468.97;;;12.62;45.74
59493;BME280;45497;43.996;22.876;2023-03-08T07:51:59;100465.66;;;12.60;46.03
59493;BME280;45497;43.996;22.876;2023-03-08T07:54:25;100476.88;;;12.77;46.25
59493;BME280;45497;43.996;22.876;2023-03-08T07:56:51;100466.03;;;12.79;46.00
59493;BME280;45497;43.996;22.876;2023-03-08T07:59:17;100476.59;;;12.94;46.04
59493;BME280;45497;43.996;22.876;2023-03-08T08:01:43;100475.19;;;12.98;45.97
59493;BME280;45497;43.996;22.876;2023-03-08T08:04:08;100472.03;;;13.09;46.21
59493;BME280;45497;43.996;22.876;2023-03-08T08:06:37;100474.34;;;13.19;46.35
59493;BME280;45497;43.996;22.876;2023-03-08T08:09:02;100474.78;;;13.23;46.01
59493;BME280;45497;43.996;22.876;2023-03-08T08:11:28;100469.41;;;13.37;45.87
59493;BME280;45497;43.996;22.876;2023-03-08T08:13:53;100466.84;;;13.51;45.52
59493;BME280;45497;43.996;22.876;2023-03-08T08:16:19;100473.88;;;13.65;45.39
59493;BME280;45497;43.996;22.876;2023-03-08T08:18:45;100460.16;;;13.68;44.91
59493;BME280;45497;43.996;22.876;2023-03-08T08:21:13;100461.44;;;13.79;44.79
59493;BME280;45497;43.996;22.876;2023-03-08T08:23:39;100452.91;;;13.90;44.58
59493;BME280;45497;43.996;22.876;2023-03-08T08:26:08;100466.91;;;13.99;44.40
59493;BME280;45497;43.996;22.876;2023-03-08T08:28:34;100468.91;;;13.97;44.30
59493;BME280;45497;43.996;22.876;2023-03-08T08:31:04;100469.38;;;14.07;44.02
59493;BME280;45497;43.996;22.876;2023-03-08T08:33:30;100463.22;;;14.07;43.58
59493;BME280;45497;43.996;22.876;2023-03-08T08:35:57;100462.84;;;14.17;43.53
59493;BME280;45497;43.996;22.876;2023-03-08T08:38:23;100467.16;;;14.18;43.39
59493;BME280;45497;43.996;22.876;2023-03-08T08:40:49;100469.03;;;14.24;43.20
59493;BME280;45497;43.996;22.876;2023-03-08T08:43:15;100465.50;;;14.17;43.18
59493;BME280;45497;43.996;22.876;2023-03-08T08:45:47;100465.16;;;14.26;43.22
59493;BME280;45497;43.996;22.876;2023-03-08T08:48:13;100454.28;;;14.34;42.87
59493;BME280;45497;43.996;22.876;2023-03-08T08:50:40;100465.59;;;14.43;42.58
59493;BME280;45497;43.996;22.876;2023-03-08T08:53:06;100459.25;;;14.51;42.38
59493;BME280;45497;43.996;22.876;2023-03-08T08:55:32;100453.31;;;14.56;42.01
59493;BME280;45497;43.996;22.876;2023-03-08T08:57:58;100443.47;;;14.56;41.76
59493;BME280;45497;43.996;22.876;2023-03-08T09:00:23;100432.44;;;14.66;41.42
59493;BME280;45497;43.996;22.876;2023-03-08T09:03:08;100453.78;;;14.79;41.20
59493;BME280;45497;43.996;22.876;2023-03-08T09:05:38;100437.59;;;14.87;41.12
59493;BME280;45497;43.996;22.876;2023-03-08T09:08:03;100441.47;;;15.05;40.77
59493;BME280;45497;43.996;22.876;2023-03-08T09:10:31;100436.16;;;14.98;40.36
59493;BME280;45497;43.996;22.876;2023-03-08T09:12:57;100434.91;;;15.01;39.59
59493;BME280;45497;43.996;22.876;2023-03-08T09:15:25;100435.50;;;15.23;40.03
59493;BME280;45497;43.996;22.876;2023-03-08T09:17:52;100422.34;;;15.28;39.33
59493;BME280;45497;43.996;22.876;2023-03-08T09:20:18;100420.47;;;15.42;38.73
59493;BME280;45497;43.996;22.876;2023-03-08T09:22:44;100426.63;;;15.49;38.43
59493;BME280;45497;43.996;22.876;2023-03-08T09:25:11;100416.91;;;15.68;38.02
59493;BME280;45497;43.996;22.876;2023-03-08T09:27:38;100422.44;;;15.86;38.00
59493;BME280;45497;43.996;22.876;2023-03-08T09:30:07;100409.41;;;15.97;37.41
59493;BME280;45497;43.996;22.876;2023-03-08T09:32:33;100423.31;;;16.19;37.09
59493;BME280;45497;43.996;22.876;2023-03-08T09:34:59;100411.59;;;16.13;36.19
59493;BME280;45497;43.996;22.876;2023-03-08T09:37:25;100420.41;;;16.20;35.89
59493;BME280;45497;43.996;22.876;2023-03-08T09:39:51;100411.88;;;16.37;35.86
59493;BME280;45497;43.996;22.876;2023-03-08T09:42:26;100410.31;;;16.54;35.73
59493;BME280;45497;43.996;22.876;2023-03-08T09:48:12;100409.34;;;16.74;35.10
59493;BME280;45497;43.996;22.876;2023-03-08T09:50:51;100407.03;;;16.84;34.59
59493;BME280;45497;43.996;22.876;2023-03-08T09:56:03;100409.16;;;17.00;33.73
59493;BME280;45497;43.996;22.876;2023-03-08T10:06:33;100408.22;;;17.13;34.33
59493;BME280;45497;43.996;22.876;2023-03-08T10:14:48;100399.53;;;17.36;29.37
59493;BME280;45497;43.996;22.876;2023-03-08T10:17:19;100404.66;;;17.56;28.79
59493;BME280;45497;43.996;22.876;2023-03-08T10:20:13;100406.06;;;17.59;26.87
59493;BME280;45497;43.996;22.876;2023-03-08T10:22:41;100397.22;;;17.58;27.07
59493;BME280;45497;43.996;22.876;2023-03-08T10:27:41;100384.94;;;17.88;27.38
59493;BME280;45497;43.996;22.876;2023-03-08T10:30:14;100380.03;;;18.15;27.25
59493;BME280;45497;43.996;22.876;2023-03-08T10:32:45;100371.63;;;18.11;27.84
59493;BME280;45497;43.996;22.876;2023-03-08T10:35:11;100376.28;;;18.04;28.19
59493;BME280;45497;43.996;22.876;2023-03-08T10:37:38;100365.91;;;18.08;28.67
59493;BME280;45497;43.996;22.876;2023-03-08T10:40:13;100353.91;;;18.10;28.24
59493;BME280;45497;43.996;22.876;2023-03-08T10:42:46;100359.88;;;18.24;29.58
59493;BME280;45497;43.996;22.876;2023-03-08T10:45:16;100354.03;;;18.27;28.87
59493;BME280;45497;43.996;22.876;2023-03-08T10:50:21;100342.31;;;18.52;29.36
59493;BME280;45497;43.996;22.876;2023-03-08T10:52:48;100358.31;;;18.59;29.92
59493;BME280;45497;43.996;22.876;2023-03-08T10:55:25;100341.41;;;18.70;29.27
59493;BME280;45497;43.996;22.876;2023-03-08T10:57:59;100338.63;;;18.88;28.38
59493;BME280;45497;43.996;22.876;2023-03-08T11:00:34;100338.50;;;19.07;28.67
59493;BME280;45497;43.996;22.876;2023-03-08T11:03:18;100336.63;;;19.07;27.70
59493;BME280;45497;43.996;22.876;2023-03-08T11:06:00;100336.63;;;19.07;28.17
59493;BME280;45497;43.996;22.876;2023-03-08T11:08:29;100345.28;;;19.09;28.15
59493;BME280;45497;43.996;22.876;2023-03-08T11:11:09;100338.41;;;19.02;27.43
59493;BME280;45497;43.996;22.876;2023-03-08T11:13:40;100336.41;;;19.09;27.78
59493;BME280;45497;43.996;22.876;2023-03-08T11:16:18;100336.16;;;19.10;29.09
59493;BME280;45497;43.996;22.876;2023-03-08T11:21:30;100335.09;;;19.23;28.30
59493;BME280;45497;43.996;22.876;2023-03-08T11:24:15;100332.66;;;19.10;28.06
59493;BME280;45497;43.996;22.876;2023-03-08T11:29:54;100344.31;;;19.16;28.88
59493;BME280;45497;43.996;22.876;2023-03-08T11:37:55;100334.59;;;19.26;28.73
59493;BME280;45497;43.996;22.876;2023-03-08T11:45:45;100326.19;;;19.35;29.20
59493;BME280;45497;43.996;22.876;2023-03-08T11:53:45;100319.88;;;19.29;28.25
59493;BME280;45497;43.996;22.876;2023-03-08T11:59:23;100315.66;;;19.45;28.56
59493;BME280;45497;43.996;22.876;2023-03-08T12:02:10;100317.84;;;19.48;28.34
59493;BME280;45497;43.996;22.876;2023-03-08T12:05:04;100324.38;;;19.52;28.45
59493;BME280;45497;43.996;22.876;2023-03-08T12:07:36;100326.56;;;19.55;28.76
59493;BME280;45497;43.996;22.876;2023-03-08T12:12:47;100328.19;;;19.68;28.72
59493;BME280;45497;43.996;22.876;2023-03-08T12:17:58;100322.31;;;19.71;28.48
59493;BME280;45497;43.996;22.876;2023-03-08T12:20:29;100312.16;;;19.73;28.48
59493;BME280;45497;43.996;22.876;2023-03-08T12:28:49;100305.75;;;19.74;28.56
59493;BME280;45497;43.996;22.876;2023-03-08T12:31:25;100300.56;;;19.73;27.23
59493;BME280;45497;43.996;22.876;2023-03-08T12:33:53;100297.22;;;19.65;28.21
59493;BME280;45497;43.996;22.876;2023-03-08T12:36:20;100302.81;;;19.76;26.72
59493;BME280;45497;43.996;22.876;2023-03-08T12:38:50;100293.25;;;19.68;26.70
59493;BME280;45497;43.996;22.876;2023-03-08T12:41:27;100302.97;;;19.86;27.63
59493;BME280;45497;43.996;22.876;2023-03-08T12:46:48;100302.50;;;19.89;28.29
59493;BME280;45497;43.996;22.876;2023-03-08T12:49:24;100292.41;;;19.96;28.06
59493;BME280;45497;43.996;22.876;2023-03-08T12:52:04;100300.34;;;20.03;27.89
59493;BME280;45497;43.996;22.876;2023-03-08T12:54:33;100307.50;;;20.14;27.79
59493;BME280;45497;43.996;22.876;2023-03-08T12:57:02;100304.00;;;20.14;28.23
59493;BME280;45497;43.996;22.876;2023-03-08T12:59:38;100294.72;;;20.04;27.35
59493;BME280;45497;43.996;22.876;2023-03-08T13:04:47;100292.88;;;19.93;27.87
59493;BME280;45497;43.996;22.876;2023-03-08T13:10:38;100298.50;;;19.63;28.20
59493;BME280;45497;43.996;22.876;2023-03-08T13:13:15;100315.94;;;19.60;28.58
59493;BME280;45497;43.996;22.876;2023-03-08T13:15:43;100315.59;;;19.57;28.41
59493;BME280;45497;43.996;22.876;2023-03-08T13:28:36;100313.66;;;19.40;28.77
59493;BME280;45497;43.996;22.876;2023-03-08T13:31:14;100311.53;;;19.42;29.01
59493;BME280;45497;43.996;22.876;2023-03-08T13:33:44;100303.13;;;19.51;29.55
59493;BME280;45497;43.996;22.876;2023-03-08T13:36:21;100303.91;;;19.63;30.08
59493;BME280;45497;43.996;22.876;2023-03-08T13:39:04;100291.13;;;19.70;30.20
59493;BME280;45497;43.996;22.876;2023-03-08T13:41:41;100295.66;;;19.70;29.93
59493;BME280;45497;43.996;22.876;2023-03-08T13:44:17;100296.28;;;19.60;29.71
59493;BME280;45497;43.996;22.876;2023-03-08T13:46:44;100298.53;;;19.51;29.44
59493;BME280;45497;43.996;22.876;2023-03-08T13:51:42;100302.56;;;19.37;29.88
59493;BME280;45497;43.996;22.876;2023-03-08T13:54:14;100302.09;;;19.40;30.24
59493;BME280;45497;43.996;22.876;2023-03-08T13:56:41;100295.72;;;19.29;29.26
59493;BME280;45497;43.996;22.876;2023-03-08T13:59:16;100295.91;;;19.39;29.17
59493;BME280;45497;43.996;22.876;2023-03-08T14:01:47;100292.97;;;19.41;29.33
59493;BME280;45497;43.996;22.876;2023-03-08T14:04:18;100290.38;;;19.46;30.21
59493;BME280;45497;43.996;22.876;2023-03-08T14:06:50;100289.94;;;19.37;28.85
59493;BME280;45497;43.996;22.876;2023-03-08T14:09:16;100279.56;;;19.29;29.34
59493;BME280;45497;43.996;22.876;2023-03-08T14:11:42;100288.94;;;19.55;29.42